createdAt,value
2023-01-13T00:00:36.503Z,100019.66
2023-01-13T00:03:03.932Z,100010.66
2023-01-13T00:05:33.893Z,100016.00
2023-01-13T00:08:00.929Z,100019.41
2023-01-13T00:10:27.848Z,100017.47
2023-01-13T00:12:54.829Z,100023.41
2023-01-13T00:15:21.742Z,100034.78
2023-01-13T00:17:49.087Z,100037.47
2023-01-13T00:20:16.450Z,100028.03
2023-01-13T00:22:43.394Z,100021.72
2023-01-13T00:25:10.387Z,100012.31
2023-01-13T00:27:37.371Z,100006.84
2023-01-13T00:30:05.148Z,99992.38
2023-01-13T00:32:32.525Z,100004.50
2023-01-13T00:34:59.523Z,100012.97
2023-01-13T00:37:26.749Z,100015.50
2023-01-13T00:39:53.704Z,100017.94
2023-01-13T00:42:39.364Z,100019.88
2023-01-13T00:45:06.720Z,100005.22
2023-01-13T00:47:33.697Z,100006.91
2023-01-13T00:50:00.616Z,99996.34
2023-01-13T00:52:27.568Z,100004.91
2023-01-13T00:54:54.487Z,100013.53
2023-01-13T00:57:21.429Z,100003.13
2023-01-13T00:59:49.625Z,100011.78
2023-01-13T01:02:16.831Z,100002.28
2023-01-13T01:04:43.809Z,100004.97
2023-01-13T01:07:11.465Z,99991.00
2023-01-13T01:09:39.645Z,99992.22
2023-01-13T01:12:06.663Z,99990.06
2023-01-13T01:14:33.960Z,99981.25
2023-01-13T01:17:00.897Z,99973.53
2023-01-13T01:19:27.996Z,99968.94
2023-01-13T01:21:55.186Z,99967.94
2023-01-13T01:24:22.149Z,99958.81
2023-01-13T01:26:49.014Z,99960.81
2023-01-13T01:29:16.073Z,99966.63
2023-01-13T01:31:43.509Z,99957.88
2023-01-13T01:34:10.932Z,99952.56
2023-01-13T01:36:39.093Z,99962.97
2023-01-13T01:39:06.936Z,99962.97
2023-01-13T01:41:34.941Z,99973.31
2023-01-13T01:44:07.450Z,99966.19
2023-01-13T01:46:39.485Z,99951.41
2023-01-13T01:49:15.705Z,99955.69
2023-01-13T01:51:45.895Z,99941.75
2023-01-13T01:54:15.829Z,99948.97
2023-01-13T01:56:43.561Z,99949.09
2023-01-13T01:59:11.285Z,99955.81
2023-01-13T02:01:38.661Z,99938.47
2023-01-13T02:04:11.351Z,99935.03
2023-01-13T02:06:38.522Z,99928.88
2023-01-13T02:09:05.626Z,99922.72
2023-01-13T02:11:52.854Z,99902.91
2023-01-13T02:14:22.231Z,99910.81
2023-01-13T02:17:18.272Z,99917.69
2023-01-13T02:19:48.217Z,99911.53
2023-01-13T02:22:36.280Z,99921.84
2023-01-13T02:25:09.414Z,99935.75
2023-01-13T02:27:44.880Z,99931.41
2023-01-13T02:30:34.854Z,99936.78
2023-01-13T02:33:20.340Z,99930.53
2023-01-13T02:35:47.223Z,99920.88
2023-01-13T02:38:15.409Z,99923.66
2023-01-13T02:40:59.542Z,99916.63
2023-01-13T02:43:51.291Z,99922.72
2023-01-13T02:46:23.849Z,99910.81
2023-01-13T02:48:52.625Z,99920.94
2023-01-13T02:51:22.362Z,99919.09
2023-01-13T02:54:00.254Z,99921.72
2023-01-13T02:56:27.859Z,99917.34
2023-01-13T02:58:56.517Z,99924.41
2023-01-13T03:01:23.649Z,99923.59
2023-01-13T03:03:50.590Z,99928.78
2023-01-13T03:06:30.051Z,99907.06
2023-01-13T03:08:56.998Z,99905.34
2023-01-13T03:11:27.983Z,99923.59
2023-01-13T03:13:54.835Z,99930.75
2023-01-13T03:16:30.797Z,99908.41
2023-01-13T03:19:12.725Z,99918.00
2023-01-13T03:21:43.523Z,99902.53
2023-01-13T03:24:16.212Z,99909.31
2023-01-13T03:26:58.062Z,99919.56
2023-01-13T03:29:51.224Z,99914.22
2023-01-13T03:32:33.293Z,99913.44
2023-01-13T03:35:04.391Z,99921.13
2023-01-13T03:37:35.121Z,99922.94
2023-01-13T03:40:14.818Z,99928.16
2023-01-13T03:43:03.740Z,99918.44
2023-01-13T03:45:32.280Z,99918.25
2023-01-13T03:48:00.213Z,99914.81
2023-01-13T03:50:30.193Z,99910.31
2023-01-13T03:53:00.250Z,99904.28
2023-01-13T03:55:30.527Z,99909.47
2023-01-13T03:58:04.051Z,99917.22
2023-01-13T04:00:43.974Z,99916.56
2023-01-13T04:03:13.436Z,99913.81
2023-01-13T04:05:42.446Z,99907.28
2023-01-13T04:08:24.278Z,99920.41
2023-01-13T04:10:57.815Z,99927.28
2023-01-13T04:13:26.379Z,99931.69
2023-01-13T04:15:53.511Z,99922.25
2023-01-13T04:18:27.775Z,99931.81
2023-01-13T04:20:56.424Z,99918.72
2023-01-13T04:23:23.981Z,99917.88
2023-01-13T04:25:54.523Z,99915.91
2023-01-13T04:28:21.852Z,99915.78
2023-01-13T04:30:49.319Z,99909.59
2023-01-13T04:33:17.178Z,99919.44
2023-01-13T04:35:45.302Z,99916.84
2023-01-13T04:38:13.655Z,99917.59
2023-01-13T04:40:41.546Z,99919.28
2023-01-13T04:43:09.062Z,99924.66
2023-01-13T04:45:35.976Z,99923.75
2023-01-13T04:48:02.896Z,99921.13
2023-01-13T04:50:29.809Z,99918.66
2023-01-13T04:52:56.961Z,99922.06
2023-01-13T04:55:24.697Z,99919.19
2023-01-13T04:57:54.443Z,99923.09
2023-01-13T05:00:22.500Z,99923.22
2023-01-13T05:02:51.222Z,99912.66
2023-01-13T05:05:19.035Z,99930.72
2023-01-13T05:07:46.613Z,99931.31
2023-01-13T05:10:24.120Z,99919.44
2023-01-13T05:13:11.258Z,99927.13
2023-01-13T05:15:58.413Z,99935.03
2023-01-13T05:18:25.832Z,99942.59
2023-01-13T05:20:52.778Z,99942.78
2023-01-13T05:23:38.899Z,99951.50
2023-01-13T05:26:06.380Z,99953.22
2023-01-13T05:28:33.819Z,99963.53
2023-01-13T05:31:00.835Z,99959.34
2023-01-13T05:33:29.045Z,99943.97
2023-01-13T05:35:56.108Z,99959.59
2023-01-13T05:38:23.127Z,99944.84
2023-01-13T05:41:08.505Z,99953.34
2023-01-13T05:43:35.620Z,99948.72
2023-01-13T05:46:05.754Z,99957.28
2023-01-13T05:48:34.115Z,99950.59
2023-01-13T05:51:01.491Z,99947.34
2023-01-13T05:53:28.819Z,99955.34
2023-01-13T05:55:56.059Z,99935.47
2023-01-13T05:58:24.695Z,99944.34
2023-01-13T06:00:52.495Z,99942.38
2023-01-13T06:03:20.356Z,99947.44
2023-01-13T06:05:47.781Z,99942.97
2023-01-13T06:08:14.898Z,99949.94
2023-01-13T06:10:41.983Z,99943.69
2023-01-13T06:13:09.129Z,99960.78
2023-01-13T06:15:36.044Z,99956.06
2023-01-13T06:18:04.425Z,99952.56
2023-01-13T06:20:31.464Z,99950.88
2023-01-13T06:22:59.227Z,99946.50
2023-01-13T06:25:28.993Z,99947.06
2023-01-13T06:27:57.006Z,99934.41
2023-01-13T06:30:24.096Z,99942.84
2023-01-13T06:32:55.635Z,99940.97
2023-01-13T06:35:25.673Z,99935.78
2023-01-13T06:37:55.037Z,99939.97
2023-01-13T06:40:22.543Z,99944.09
2023-01-13T06:43:08.444Z,99951.91
2023-01-13T06:45:35.699Z,99934.03
2023-01-13T06:48:02.760Z,99942.13
2023-01-13T06:50:30.490Z,99930.06
2023-01-13T06:52:57.527Z,99937.75
2023-01-13T06:55:25.195Z,99941.94
2023-01-13T06:57:53.701Z,99927.50
2023-01-13T07:00:21.245Z,99938.47
2023-01-13T07:02:48.268Z,99934.00
2023-01-13T07:05:15.907Z,99942.69
2023-01-13T07:07:42.895Z,99936.41
2023-01-13T07:10:13.237Z,99946.84
2023-01-13T07:13:00.298Z,99935.34
2023-01-13T07:15:27.388Z,99939.66
2023-01-13T07:17:54.496Z,99953.38
2023-01-13T07:20:21.506Z,99947.03
2023-01-13T07:22:54.330Z,99952.66
2023-01-13T07:25:21.831Z,99947.47
2023-01-13T07:27:48.753Z,99951.75
2023-01-13T07:30:17.498Z,99950.00
2023-01-13T07:32:44.403Z,99951.69
2023-01-13T07:35:11.342Z,99952.56
2023-01-13T07:37:39.737Z,99957.63
2023-01-13T07:40:07.057Z,99951.28
2023-01-13T07:42:52.656Z,99964.41
2023-01-13T07:45:19.493Z,99962.84
2023-01-13T07:47:46.726Z,99969.50
2023-01-13T07:50:13.780Z,99958.22
2023-01-13T07:52:40.695Z,99967.88
2023-01-13T07:55:07.798Z,99959.47
2023-01-13T07:57:34.747Z,99956.91
2023-01-13T08:00:01.953Z,99954.59
2023-01-13T08:02:32.111Z,99942.66
2023-01-13T08:04:59.413Z,99945.53
2023-01-13T08:07:26.416Z,99948.25
2023-01-13T08:09:53.407Z,99952.31
2023-01-13T08:12:41.469Z,99955.41
2023-01-13T08:15:21.490Z,99957.03
2023-01-13T08:17:48.747Z,99959.88
2023-01-13T08:20:15.932Z,99926.44
2023-01-13T08:22:43.034Z,99951.13
2023-01-13T08:25:10.289Z,99949.03
2023-01-13T08:27:37.667Z,99950.84
2023-01-13T08:30:06.092Z,99961.72
2023-01-13T08:32:33.088Z,99965.97
2023-01-13T08:35:00.195Z,99960.28
2023-01-13T08:37:27.097Z,99967.66
2023-01-13T08:39:54.138Z,99961.69
2023-01-13T08:42:21.159Z,99960.47
2023-01-13T08:44:48.293Z,99945.09
2023-01-13T08:47:15.342Z,99964.69
2023-01-13T08:49:42.741Z,99961.53
2023-01-13T08:52:09.999Z,99966.72
2023-01-13T08:54:38.184Z,99949.91
2023-01-13T08:57:05.541Z,99940.53
2023-01-13T08:59:33.084Z,99946.78
2023-01-13T09:02:00.930Z,99944.94
2023-01-13T09:04:28.729Z,99942.34
2023-01-13T09:06:56.715Z,99943.53
2023-01-13T09:09:24.186Z,99946.66
2023-01-13T09:12:10.534Z,99942.56
2023-01-13T09:14:38.524Z,99933.94
2023-01-13T09:17:06.040Z,99938.44
2023-01-13T09:19:33.081Z,99933.72
2023-01-13T09:22:00.500Z,99920.41
2023-01-13T09:24:27.877Z,99915.38
2023-01-13T09:26:54.863Z,99913.91
2023-01-13T09:29:21.914Z,99920.69
2023-01-13T09:31:49.036Z,99926.81
2023-01-13T09:34:55.943Z,99920.13
2023-01-13T09:37:22.871Z,99910.63
2023-01-13T09:39:49.898Z,99908.19
2023-01-13T09:42:55.274Z,99911.56
2023-01-13T09:45:36.323Z,99901.03
2023-01-13T09:48:03.215Z,99911.94
2023-01-13T09:50:34.336Z,99899.50
2023-01-13T09:53:01.441Z,99891.03
2023-01-13T09:55:31.756Z,99898.88
2023-01-13T09:57:59.177Z,99905.59
2023-01-13T10:00:29.096Z,99899.25
2023-01-13T10:03:14.516Z,99903.78
2023-01-13T10:05:43.310Z,99906.31
2023-01-13T10:08:10.408Z,99901.09
2023-01-13T10:10:37.317Z,99901.00
2023-01-13T10:13:14.387Z,99894.16
2023-01-13T10:16:05.734Z,99900.31
2023-01-13T10:18:33.415Z,99914.66
2023-01-13T10:21:25.167Z,99917.25
2023-01-13T10:23:55.614Z,99908.16
2023-01-13T10:26:29.938Z,99892.06
2023-01-13T10:28:57.496Z,99904.75
2023-01-13T10:34:07.748Z,99904.72
2023-01-13T10:36:35.087Z,99903.91
2023-01-13T10:39:10.083Z,99906.03
2023-01-13T10:41:37.196Z,99904.22
2023-01-13T10:44:07.231Z,99902.66
2023-01-13T10:46:50.009Z,99901.44
2023-01-13T10:49:28.664Z,99908.50
2023-01-13T10:51:56.497Z,99911.88
2023-01-13T10:54:27.177Z,99902.03
2023-01-13T10:57:15.916Z,99909.44
2023-01-13T10:59:44.481Z,99913.66
2023-01-13T11:02:30.998Z,99919.19
2023-01-13T11:05:03.381Z,99915.50
2023-01-13T11:07:31.175Z,99917.91
2023-01-13T11:10:21.470Z,99921.09
2023-01-13T11:12:48.965Z,99919.31
2023-01-13T11:15:19.337Z,99916.78
2023-01-13T11:17:48.821Z,99910.13
2023-01-13T11:20:31.357Z,99915.44
2023-01-13T11:23:00.884Z,99918.25
2023-01-13T11:25:41.550Z,99910.84
2023-01-13T11:28:24.122Z,99907.16
2023-01-13T11:31:02.770Z,99912.41
2023-01-13T11:33:34.167Z,99910.41
2023-01-13T11:38:57.615Z,99909.50
2023-01-13T11:41:33.003Z,99916.06
2023-01-13T11:44:07.004Z,99908.44
2023-01-13T11:46:34.146Z,99909.69
2023-01-13T11:49:01.268Z,99902.94
2023-01-13T11:51:31.229Z,99883.16
2023-01-13T11:54:17.397Z,99903.28
2023-01-13T11:57:03.397Z,99915.16
2023-01-13T11:59:50.465Z,99915.84
2023-01-13T12:02:36.355Z,99925.16
2023-01-13T12:05:06.569Z,99921.50
2023-01-13T12:07:51.939Z,99921.28
2023-01-13T12:10:26.332Z,99919.72
2023-01-13T12:13:11.977Z,99926.53
2023-01-13T12:15:57.601Z,99927.53
2023-01-13T12:18:41.638Z,99926.25
2023-01-13T12:21:22.520Z,99928.78
2023-01-13T12:23:50.045Z,99927.09
2023-01-13T12:26:19.629Z,99922.13
2023-01-13T12:29:10.843Z,99937.59
2023-01-13T12:31:39.394Z,99942.91
2023-01-13T12:34:31.238Z,99928.28
2023-01-13T12:37:09.095Z,99942.06
2023-01-13T12:39:55.139Z,99924.84
2023-01-13T12:42:49.878Z,99941.34
2023-01-13T12:45:21.045Z,99940.31
2023-01-13T12:47:48.823Z,99934.44
2023-01-13T12:50:28.384Z,99937.69
2023-01-13T12:53:18.394Z,99938.59
2023-01-13T12:55:45.563Z,99944.75
2023-01-13T12:58:17.038Z,99938.53
2023-01-13T13:00:45.518Z,99949.97
2023-01-13T13:03:19.486Z,99958.47
2023-01-13T13:05:51.163Z,99948.78
2023-01-13T13:08:22.484Z,99946.94
2023-01-13T13:11:34.331Z,99948.84
2023-01-13T13:14:02.093Z,99959.63
2023-01-13T13:16:29.691Z,99958.59
2023-01-13T13:19:27.929Z,99958.50
2023-01-13T13:22:17.291Z,99953.50
2023-01-13T13:25:04.094Z,99963.81
2023-01-13T13:27:39.487Z,99960.34
2023-01-13T13:30:25.608Z,99963.03
2023-01-13T13:32:59.425Z,99963.94
2023-01-13T13:35:41.770Z,99957.66
2023-01-13T13:38:49.823Z,99967.06
2023-01-13T13:41:38.189Z,99961.56
2023-01-13T13:47:27.264Z,99962.47
2023-01-13T13:49:54.789Z,99966.00
2023-01-13T13:52:28.108Z,99964.66
2023-01-13T13:54:59.012Z,99968.41
2023-01-13T13:57:32.613Z,99970.19
2023-01-13T14:00:01.030Z,99974.78
2023-01-13T14:02:32.875Z,99978.44
2023-01-13T14:05:17.576Z,99979.16
2023-01-13T14:08:05.591Z,99981.28
2023-01-13T14:10:36.444Z,99971.75
2023-01-13T14:13:14.229Z,99961.56
2023-01-13T14:15:44.323Z,99959.50
2023-01-13T14:18:13.521Z,99972.28
2023-01-13T14:20:43.731Z,99973.56
2023-01-13T14:23:18.427Z,99975.19
2023-01-13T14:25:49.996Z,99969.25
2023-01-13T14:28:17.327Z,99972.09
2023-01-13T14:30:46.555Z,99966.78
2023-01-13T14:33:23.413Z,99963.75
2023-01-13T14:36:07.391Z,99964.53
2023-01-13T14:38:34.402Z,99983.47
2023-01-13T14:41:12.369Z,99981.69
2023-01-13T14:43:44.333Z,99962.69
2023-01-13T14:46:11.944Z,99967.06
2023-01-13T14:48:40.381Z,99966.34
2023-01-13T14:51:12.086Z,99971.59
2023-01-13T14:53:40.302Z,99969.75
2023-01-13T14:56:28.660Z,99969.56
2023-01-13T14:59:01.494Z,99965.00
2023-01-13T15:01:36.533Z,99951.53
2023-01-13T15:04:16.773Z,99976.38
2023-01-13T15:06:47.908Z,99966.94
2023-01-13T15:09:15.029Z,99970.03
2023-01-13T15:11:42.212Z,99961.41
2023-01-13T15:14:11.054Z,99963.03
2023-01-13T15:19:19.474Z,99976.69
2023-01-13T15:21:46.678Z,99974.19
2023-01-13T15:24:13.693Z,99981.28
2023-01-13T15:26:42.384Z,99974.00
2023-01-13T15:29:14.250Z,99976.81
2023-01-13T15:31:43.457Z,99976.72
2023-01-13T15:34:10.504Z,99978.50
2023-01-13T15:36:38.369Z,99968.25
2023-01-13T15:39:06.704Z,99963.25
2023-01-13T15:41:53.170Z,99970.09
2023-01-13T15:44:39.047Z,99972.59
2023-01-13T15:47:07.701Z,99973.06
2023-01-13T15:49:38.085Z,99965.16
2023-01-13T15:52:14.294Z,99968.47
2023-01-13T15:54:44.342Z,99972.00
2023-01-13T15:57:31.956Z,99966.91
2023-01-13T16:00:01.446Z,99972.09
2023-01-13T16:05:14.733Z,99965.50
2023-01-13T16:07:42.171Z,99961.25
2023-01-13T16:10:20.953Z,99965.59
2023-01-13T16:12:52.658Z,99963.94
2023-01-13T16:15:22.655Z,99957.88
2023-01-13T16:17:54.361Z,99956.00
2023-01-13T16:20:27.447Z,99959.13
2023-01-13T16:22:55.295Z,99962.66
2023-01-13T16:25:24.804Z,99950.50
2023-01-13T16:27:51.949Z,99953.13
2023-01-13T16:30:36.311Z,99954.50
2023-01-13T16:33:49.574Z,99953.16
2023-01-13T16:38:58.949Z,99954.38
2023-01-13T16:41:26.308Z,99955.94
2023-01-13T16:43:54.427Z,99957.00
2023-01-13T16:46:21.615Z,99952.00
2023-01-13T16:48:50.132Z,99959.94
2023-01-13T16:51:19.773Z,99952.84
2023-01-13T16:53:47.700Z,99951.09
2023-01-13T16:56:24.229Z,99955.13
2023-01-13T16:58:56.525Z,99948.34
2023-01-13T17:01:27.975Z,99940.69
2023-01-13T17:03:59.526Z,99928.88
2023-01-13T17:07:19.507Z,99935.94
2023-01-13T17:10:22.693Z,99942.81
2023-01-13T17:12:50.433Z,99933.09
2023-01-13T17:15:20.604Z,99943.56
2023-01-13T17:17:52.376Z,99943.56
2023-01-13T17:20:19.627Z,99943.66
2023-01-13T17:22:49.703Z,99948.78
2023-01-13T17:25:21.915Z,99954.94
2023-01-13T17:27:50.772Z,99954.81
2023-01-13T17:30:22.500Z,99947.09
2023-01-13T17:33:09.561Z,99953.81
2023-01-13T17:35:39.372Z,99960.97
2023-01-13T17:38:07.265Z,99953.03
2023-01-13T17:40:34.605Z,99954.03
2023-01-13T17:43:01.601Z,99958.91
2023-01-13T17:45:30.183Z,99950.56
2023-01-13T17:48:01.026Z,99943.72
2023-01-13T17:50:30.244Z,99956.81
2023-01-13T17:52:58.119Z,99958.50
2023-01-13T17:55:25.188Z,99948.66
2023-01-13T17:57:52.599Z,99954.19
2023-01-13T18:00:19.983Z,99947.91
2023-01-13T18:02:47.174Z,99951.50
2023-01-13T18:05:14.502Z,99962.50
2023-01-13T18:08:27.748Z,99964.97
2023-01-13T18:10:57.701Z,99966.00
2023-01-13T18:13:47.640Z,99967.28
2023-01-13T18:16:16.214Z,99964.69
2023-01-13T18:18:46.541Z,99960.22
2023-01-13T18:21:37.981Z,99963.69
2023-01-13T18:24:24.254Z,99966.22
2023-01-13T18:27:10.903Z,99963.78
2023-01-13T18:29:37.999Z,99961.84
2023-01-13T18:34:46.384Z,99958.53
2023-01-13T18:37:14.478Z,99942.84
2023-01-13T18:39:43.000Z,99955.63
2023-01-13T18:42:29.759Z,99952.72
2023-01-13T18:44:58.008Z,99957.94
2023-01-13T18:47:26.278Z,99952.72
2023-01-13T18:49:53.515Z,99954.69
2023-01-13T18:52:24.484Z,99958.16
2023-01-13T18:54:51.751Z,99967.56
2023-01-13T18:57:19.384Z,99958.25
2023-01-13T18:59:47.944Z,99954.91
2023-01-13T19:02:19.183Z,99952.16
2023-01-13T19:04:46.657Z,99955.84
2023-01-13T19:07:23.857Z,99954.69
2023-01-13T19:09:55.936Z,99953.09
2023-01-13T19:12:34.457Z,99963.38
2023-01-13T19:15:02.235Z,99954.84
2023-01-13T19:17:40.343Z,99961.47
2023-01-13T19:20:12.290Z,99957.22
2023-01-13T19:22:42.492Z,99964.84
2023-01-13T19:25:09.632Z,99955.00
2023-01-13T19:27:36.967Z,99951.50
2023-01-13T19:30:04.281Z,99948.88
2023-01-13T19:35:17.736Z,99942.72
2023-01-13T19:37:55.480Z,99944.53
2023-01-13T19:40:22.745Z,99945.34
2023-01-13T19:43:08.998Z,99949.78
2023-01-13T19:45:44.986Z,99953.31
2023-01-13T19:48:18.618Z,99954.13
2023-01-13T19:50:49.692Z,99962.94
2023-01-13T19:53:20.429Z,99956.88
2023-01-13T19:55:52.409Z,99962.63
2023-01-13T19:58:23.818Z,99956.56
2023-01-13T20:00:51.593Z,99964.28
2023-01-13T20:03:21.051Z,99951.72
2023-01-13T20:05:49.232Z,99946.19
2023-01-13T20:08:18.441Z,99953.41
2023-01-13T20:10:46.872Z,99965.19
2023-01-13T20:13:15.057Z,99955.00
2023-01-13T20:15:43.673Z,99955.94
2023-01-13T20:18:13.799Z,99954.47
2023-01-13T20:20:44.216Z,99963.78
2023-01-13T20:23:11.726Z,99965.47
2023-01-13T20:25:41.500Z,99970.56
2023-01-13T20:28:09.014Z,99971.50
2023-01-13T20:30:36.535Z,99960.09
2023-01-13T20:33:04.117Z,99957.50
2023-01-13T20:35:33.483Z,99961.88
2023-01-13T20:38:01.237Z,99970.44
2023-01-13T20:40:28.372Z,99964.41
2023-01-13T20:42:55.477Z,99971.19
2023-01-13T20:45:23.539Z,99970.34
2023-01-13T20:47:58.088Z,99963.97
2023-01-13T20:50:25.019Z,99965.03
2023-01-13T20:52:52.981Z,99964.09
2023-01-13T20:55:20.276Z,99960.72
2023-01-13T20:57:49.153Z,99967.41
2023-01-13T21:00:17.447Z,99952.66
2023-01-13T21:02:44.921Z,99957.44
2023-01-13T21:05:12.189Z,99960.75
2023-01-13T21:07:39.525Z,99963.19
2023-01-13T21:10:07.159Z,99964.22
2023-01-13T21:12:57.682Z,99964.25
2023-01-13T21:15:26.024Z,99958.97
2023-01-13T21:18:11.500Z,99956.41
2023-01-13T21:20:39.381Z,99945.94
2023-01-13T21:23:06.915Z,99952.91
2023-01-13T21:25:35.527Z,99955.19
2023-01-13T21:28:06.292Z,99944.13
2023-01-13T21:30:33.873Z,99949.66
2023-01-13T21:33:01.386Z,99952.59
2023-01-13T21:35:29.725Z,99941.97
2023-01-13T21:37:57.289Z,99944.97
2023-01-13T21:40:24.665Z,99937.19
2023-01-13T21:43:10.435Z,99949.16
2023-01-13T21:45:57.363Z,99946.50
2023-01-13T21:48:31.488Z,99945.56
2023-01-13T21:51:01.653Z,99946.81
2023-01-13T21:53:28.626Z,99950.88
2023-01-13T21:55:55.547Z,99942.25
2023-01-13T21:58:22.611Z,99945.66
2023-01-13T22:00:50.161Z,99938.19
2023-01-13T22:03:19.101Z,99927.56
2023-01-13T22:05:46.777Z,99935.00
2023-01-13T22:08:13.931Z,99940.25
2023-01-13T22:11:00.499Z,99940.25
2023-01-13T22:13:47.733Z,99924.84
2023-01-13T22:16:18.301Z,99940.41
2023-01-13T22:18:45.420Z,99927.94
2023-01-13T22:21:12.709Z,99924.72
2023-01-13T22:23:41.084Z,99929.25
2023-01-13T22:26:08.419Z,99932.16
2023-01-13T22:28:40.889Z,99924.25
2023-01-13T22:31:09.104Z,99928.63
2023-01-13T22:33:36.327Z,99933.69
2023-01-13T22:36:03.417Z,99932.72
2023-01-13T22:38:30.953Z,99933.63
2023-01-13T22:40:58.794Z,99924.06
2023-01-13T22:43:29.988Z,99932.00
2023-01-13T22:45:58.122Z,99936.41
2023-01-13T22:48:25.198Z,99937.94
2023-01-13T22:50:53.601Z,99937.94
2023-01-13T22:53:20.893Z,99936.88
2023-01-13T22:55:57.953Z,99940.09
2023-01-13T22:58:25.632Z,99934.91
2023-01-13T23:00:53.264Z,99941.00
2023-01-13T23:03:20.327Z,99928.69
2023-01-13T23:05:47.387Z,99934.69
2023-01-13T23:08:14.791Z,99939.16
2023-01-13T23:10:42.042Z,99934.53
2023-01-13T23:13:09.070Z,99933.59
2023-01-13T23:15:36.000Z,99937.16
2023-01-13T23:18:02.980Z,99938.84
2023-01-13T23:20:30.892Z,99938.84
2023-01-13T23:22:59.557Z,99935.28
2023-01-13T23:25:26.737Z,99944.78
2023-01-13T23:27:53.704Z,99943.75
2023-01-13T23:30:20.685Z,99946.31
2023-01-13T23:32:47.665Z,99952.31
2023-01-13T23:35:15.771Z,99953.25
2023-01-13T23:37:42.835Z,99944.31
2023-01-13T23:40:10.237Z,99944.44
2023-01-13T23:42:37.273Z,99941.59
2023-01-13T23:45:04.564Z,99934.72
2023-01-13T23:47:31.816Z,99945.84
2023-01-13T23:49:58.776Z,99948.50
2023-01-13T23:52:25.724Z,99942.94
2023-01-13T23:54:52.759Z,99922.25
2023-01-13T23:57:19.738Z,99943.59
2023-01-13T23:59:46.753Z,99933.94
